createdAt,value
2019-05-01T00:00:57.485Z,11.05
2019-05-01T00:03:32.232Z,9.63
2019-05-01T00:06:04.230Z,13.40
2019-05-01T00:08:34.650Z,9.55
2019-05-01T00:11:05.017Z,8.38
2019-05-01T00:13:35.446Z,7.22
2019-05-01T00:16:06.009Z,9.15
2019-05-01T00:18:36.435Z,10.03
2019-05-01T00:21:06.861Z,8.33
2019-05-01T00:23:37.230Z,8.15
2019-05-01T00:26:07.643Z,7.45
2019-05-01T00:28:38.183Z,7.33
2019-05-01T00:31:08.635Z,9.05
2019-05-01T00:33:39.150Z,7.62
2019-05-01T00:36:09.633Z,10.30
2019-05-01T00:38:40.068Z,10.30
2019-05-01T00:41:10.495Z,11.65
2019-05-01T00:43:40.869Z,10.98
2019-05-01T00:46:11.303Z,7.70
2019-05-01T00:48:41.747Z,7.87
2019-05-01T00:51:12.117Z,8.30
2019-05-01T00:53:42.534Z,8.13
2019-05-01T00:56:20.611Z,9.35
2019-05-01T00:59:04.690Z,7.65
2019-05-01T01:01:42.434Z,6.37
2019-05-01T01:04:14.413Z,9.08
2019-05-01T01:06:44.765Z,7.65
2019-05-01T01:09:16.186Z,9.48
2019-05-01T01:11:46.562Z,7.37
2019-05-01T01:14:16.915Z,8.48
2019-05-01T01:16:48.522Z,7.67
2019-05-01T01:19:18.887Z,11.12
2019-05-01T01:21:49.338Z,10.90
2019-05-01T01:24:19.699Z,7.50
2019-05-01T01:26:50.417Z,6.00
2019-05-01T01:29:20.909Z,10.82
2019-05-01T01:31:51.323Z,8.23
2019-05-01T01:34:21.693Z,11.90
2019-05-01T01:36:52.125Z,10.08
2019-05-01T01:39:22.489Z,7.55
2019-05-01T01:41:53.121Z,8.33
2019-05-01T01:44:28.531Z,7.42
2019-05-01T01:47:00.537Z,8.13
2019-05-01T01:49:31.090Z,7.25
2019-05-01T01:52:01.906Z,8.15
2019-05-01T01:54:32.649Z,8.58
2019-05-01T01:57:03.069Z,5.70
2019-05-01T01:59:33.807Z,5.78
2019-05-01T02:02:06.002Z,6.90
2019-05-01T02:04:41.107Z,7.08
2019-05-01T02:07:11.533Z,8.45
2019-05-01T02:09:42.039Z,7.40
2019-05-01T02:12:13.565Z,8.45
2019-05-01T02:14:43.992Z,9.08
2019-05-01T02:17:14.407Z,6.65
2019-05-01T02:19:44.824Z,6.83
2019-05-01T02:22:15.236Z,6.17
2019-05-01T02:24:45.654Z,10.88
2019-05-01T02:27:19.155Z,9.90
2019-05-01T02:29:51.646Z,9.63
2019-05-01T02:32:23.631Z,6.22
2019-05-01T02:34:55.650Z,4.33
2019-05-01T02:37:27.785Z,5.15
2019-05-01T02:40:01.484Z,3.77
2019-05-01T02:42:34.058Z,5.47
2019-05-01T02:45:06.022Z,6.62
2019-05-01T02:47:37.880Z,8.80
2019-05-01T02:50:11.140Z,6.25
2019-05-01T02:52:44.202Z,3.98
2019-05-01T02:55:16.507Z,4.15
2019-05-01T03:00:17.678Z,8.68
2019-05-01T03:02:48.650Z,9.35
2019-05-01T03:05:19.083Z,5.87
2019-05-01T03:07:50.038Z,5.45
2019-05-01T03:10:20.968Z,4.40
2019-05-01T03:12:52.626Z,3.92
2019-05-01T03:15:25.054Z,3.62
2019-05-01T03:18:11.520Z,4.70
2019-05-01T03:20:55.812Z,4.70
2019-05-01T03:23:33.834Z,4.37
2019-05-01T03:26:05.279Z,3.45
2019-05-01T03:28:35.829Z,3.87
2019-05-01T03:31:06.787Z,3.90
2019-05-01T03:33:37.332Z,3.02
2019-05-01T03:36:07.989Z,3.90
2019-05-01T03:38:38.808Z,4.72
2019-05-01T03:41:10.859Z,4.30
2019-05-01T03:43:41.378Z,4.17
2019-05-01T03:46:11.847Z,4.25
2019-05-01T03:48:43.576Z,3.70
2019-05-01T03:51:14.391Z,5.05
2019-05-01T03:53:46.016Z,4.95
2019-05-01T03:56:16.869Z,3.55
2019-05-01T03:58:47.677Z,4.90
2019-05-01T04:01:20.524Z,5.22
2019-05-01T04:03:53.263Z,5.62
2019-05-01T04:06:24.133Z,10.03
2019-05-01T04:08:55.380Z,7.92
2019-05-01T04:11:26.135Z,11.30
2019-05-01T04:13:57.683Z,8.68
2019-05-01T04:16:29.056Z,6.15
2019-05-01T04:19:00.088Z,6.23
2019-05-01T04:21:32.126Z,6.03
2019-05-01T04:24:02.766Z,6.72
2019-05-01T04:26:33.833Z,7.58
2019-05-01T04:29:15.586Z,6.62
2019-05-01T04:31:47.502Z,6.65
2019-05-01T04:34:23.153Z,4.78
2019-05-01T04:37:01.446Z,5.92
2019-05-01T04:39:32.699Z,7.50
2019-05-01T04:42:03.252Z,7.47
2019-05-01T04:44:34.095Z,6.62
2019-05-01T04:47:05.177Z,8.53
2019-05-01T04:49:35.615Z,5.08
2019-05-01T04:52:06.747Z,8.05
2019-05-01T04:54:37.503Z,6.58
2019-05-01T04:57:08.047Z,6.50
2019-05-01T04:59:38.875Z,6.05
2019-05-01T05:02:11.482Z,6.40
2019-05-01T05:04:42.538Z,5.92
2019-05-01T05:07:13.125Z,7.58
2019-05-01T05:09:45.367Z,6.85
2019-05-01T05:12:25.787Z,4.85
2019-05-01T05:15:12.773Z,4.25
2019-05-01T05:17:43.202Z,5.12
2019-05-01T05:20:13.653Z,4.17
2019-05-01T05:22:44.067Z,4.28
2019-05-01T05:25:14.442Z,5.70
2019-05-01T05:27:47.217Z,6.25
2019-05-01T05:30:17.689Z,6.10
2019-05-01T05:32:49.502Z,4.33
2019-05-01T05:35:22.378Z,5.53
2019-05-01T05:37:56.498Z,6.00
2019-05-01T05:40:30.125Z,8.93
2019-05-01T05:43:00.568Z,10.95
2019-05-01T05:45:31.047Z,14.20
2019-05-01T05:48:02.576Z,14.47
2019-05-01T05:50:53.685Z,13.25
2019-05-01T05:53:30.079Z,11.65
2019-05-01T05:56:04.950Z,7.67
2019-05-01T05:58:40.015Z,8.23
2019-05-01T06:01:31.350Z,11.65
2019-05-01T06:04:17.976Z,8.60
2019-05-01T06:06:52.167Z,8.38
2019-05-01T06:09:26.668Z,8.43
2019-05-01T06:12:12.199Z,8.23
2019-05-01T06:14:49.242Z,8.60
2019-05-01T06:17:28.550Z,9.10
2019-05-01T06:20:04.509Z,8.33
2019-05-01T06:22:53.109Z,8.15
2019-05-01T06:25:28.062Z,6.83
2019-05-01T06:27:59.266Z,8.93
2019-05-01T06:30:31.587Z,5.50
2019-05-01T06:33:04.312Z,6.50
2019-05-01T06:35:38.004Z,7.67
2019-05-01T06:38:09.106Z,5.87
2019-05-01T06:40:41.502Z,5.72
2019-05-01T06:43:37.391Z,6.15
2019-05-01T06:46:11.082Z,6.83
2019-05-01T06:49:06.797Z,6.35
2019-05-01T06:51:41.536Z,5.90
2019-05-01T06:54:16.429Z,4.78
2019-05-01T06:56:45.917Z,5.75
2019-05-01T06:59:17.858Z,5.35
2019-05-01T07:01:53.296Z,7.60
2019-05-01T07:04:24.416Z,7.47
2019-05-01T07:06:54.890Z,8.75
2019-05-01T07:09:28.106Z,4.40
2019-05-01T07:11:58.139Z,5.30
2019-05-01T07:14:29.101Z,10.30
2019-05-01T07:16:59.647Z,6.25
2019-05-01T07:19:47.819Z,9.68
2019-05-01T07:22:18.356Z,10.10
2019-05-01T07:24:49.194Z,4.70
2019-05-01T07:27:23.644Z,10.55
2019-05-01T07:29:54.018Z,9.10
2019-05-01T07:32:24.559Z,5.30
2019-05-01T07:34:56.852Z,5.40
2019-05-01T07:37:27.806Z,5.97
2019-05-01T07:39:58.618Z,4.45
2019-05-01T07:42:30.802Z,4.05
2019-05-01T07:45:21.596Z,3.87
2019-05-01T07:47:54.259Z,5.92
2019-05-01T07:50:31.648Z,5.62
2019-05-01T07:52:57.359Z,7.83
2019-05-01T07:55:38.007Z,4.10
2019-05-01T07:58:15.246Z,5.85
2019-05-01T08:00:52.252Z,4.92
2019-05-01T08:03:22.723Z,6.40
2019-05-01T08:05:53.244Z,5.60
2019-05-01T08:08:23.614Z,6.92
2019-05-01T08:10:54.055Z,5.58
2019-05-01T08:13:24.415Z,4.75
2019-05-01T08:15:55.013Z,6.62
2019-05-01T08:18:42.477Z,6.08
2019-05-01T08:21:26.082Z,6.00
2019-05-01T08:23:56.693Z,8.78
2019-05-01T08:26:27.045Z,5.97
2019-05-01T08:29:06.917Z,7.85
2019-05-01T08:31:41.479Z,6.33
2019-05-01T08:34:16.217Z,5.05
2019-05-01T08:36:47.161Z,8.33
2019-05-01T08:39:18.641Z,7.30
2019-05-01T08:41:49.155Z,5.25
2019-05-01T08:44:20.692Z,7.20
2019-05-01T08:46:57.198Z,6.33
2019-05-01T08:49:29.390Z,6.05
2019-05-01T08:51:59.828Z,7.97
2019-05-01T08:54:33.558Z,9.38
2019-05-01T08:57:02.262Z,8.43
2019-05-01T08:59:32.616Z,6.12
2019-05-01T09:02:09.581Z,9.80
2019-05-01T09:04:35.140Z,6.70
2019-05-01T09:07:05.662Z,9.38
2019-05-01T09:09:39.969Z,7.35
2019-05-01T09:12:11.875Z,9.95
2019-05-01T09:14:40.046Z,8.80
2019-05-01T09:17:10.478Z,7.65
2019-05-01T09:19:40.858Z,9.78
2019-05-01T09:22:11.294Z,7.03
2019-05-01T09:24:41.969Z,10.23
2019-05-01T09:27:29.637Z,8.65
2019-05-01T09:30:21.765Z,8.73
2019-05-01T09:32:54.610Z,10.08
2019-05-01T09:35:24.469Z,8.90
2019-05-01T09:37:54.918Z,13.28
2019-05-01T09:40:25.284Z,7.30
2019-05-01T09:42:59.442Z,10.13
2019-05-01T09:45:27.816Z,8.45
2019-05-01T09:47:58.233Z,10.43
2019-05-01T09:50:30.398Z,9.35
2019-05-01T09:53:05.903Z,10.50
2019-05-01T09:55:43.906Z,9.25
2019-05-01T09:58:14.443Z,13.43
2019-05-01T10:00:48.875Z,11.78
2019-05-01T10:03:18.335Z,12.53
2019-05-01T10:05:48.988Z,9.33
2019-05-01T10:08:19.407Z,9.78
2019-05-01T10:10:49.835Z,11.63
2019-05-01T10:13:22.357Z,10.32
2019-05-01T10:15:52.301Z,9.00
2019-05-01T10:18:22.722Z,10.18
2019-05-01T10:20:53.145Z,15.63
2019-05-01T10:23:23.580Z,10.63
2019-05-01T10:25:55.579Z,12.07
2019-05-01T10:28:27.562Z,10.25
2019-05-01T10:31:11.898Z,8.00
2019-05-01T10:33:42.606Z,11.97
2019-05-01T10:36:18.945Z,10.80
2019-05-01T10:38:46.861Z,9.98
2019-05-01T10:41:17.549Z,10.85
2019-05-01T10:43:48.024Z,12.50
2019-05-01T10:46:18.451Z,9.03
2019-05-01T10:48:49.077Z,11.30
2019-05-01T10:51:19.495Z,10.63
2019-05-01T10:53:49.877Z,11.05
2019-05-01T10:56:20.406Z,11.12
2019-05-01T10:58:50.765Z,11.10
2019-05-01T11:01:40.257Z,14.95
2019-05-01T11:04:10.710Z,9.23
2019-05-01T11:06:41.122Z,10.48
2019-05-01T11:09:12.046Z,11.05
2019-05-01T11:11:42.422Z,9.15
2019-05-01T11:14:12.843Z,8.80
2019-05-01T11:16:43.218Z,10.70
2019-05-01T11:19:13.781Z,11.93
2019-05-01T11:21:44.155Z,9.50
2019-05-01T11:24:14.572Z,7.47
2019-05-01T11:26:44.931Z,10.18
2019-05-01T11:29:15.359Z,7.62
2019-05-01T11:31:47.295Z,8.93
2019-05-01T11:34:20.625Z,9.20
2019-05-01T11:37:01.941Z,8.40
2019-05-01T11:39:43.103Z,11.10
2019-05-01T11:42:16.746Z,8.98
2019-05-01T11:44:47.162Z,9.18
2019-05-01T11:47:17.529Z,6.50
2019-05-01T11:49:47.974Z,7.72
2019-05-01T11:52:18.352Z,8.23
2019-05-01T11:54:48.810Z,6.97
2019-05-01T11:57:19.234Z,10.03
2019-05-01T11:59:49.685Z,14.93
2019-05-01T12:02:20.049Z,7.45
2019-05-01T12:04:50.474Z,9.05
2019-05-01T12:07:20.840Z,5.83
2019-05-01T12:09:51.274Z,7.15
2019-05-01T12:12:24.318Z,9.90
2019-05-01T12:14:54.757Z,7.97
2019-05-01T12:17:38.748Z,7.42
2019-05-01T12:20:08.094Z,7.60
2019-05-01T12:22:38.453Z,8.70
2019-05-01T12:25:08.990Z,7.08
2019-05-01T12:27:39.349Z,6.90
2019-05-01T12:30:10.807Z,8.18
2019-05-01T12:32:41.237Z,6.03
2019-05-01T12:35:11.852Z,7.62
2019-05-01T12:37:42.971Z,11.68
2019-05-01T12:40:15.912Z,9.20
2019-05-01T12:42:46.571Z,8.40
2019-05-01T12:45:17.946Z,9.73
2019-05-01T12:47:49.935Z,7.80
2019-05-01T12:50:21.091Z,9.58
2019-05-01T12:53:02.087Z,8.25
2019-05-01T12:55:37.192Z,7.15
2019-05-01T12:58:07.625Z,8.85
2019-05-01T13:00:43.772Z,7.80
2019-05-01T13:03:14.186Z,9.38
2019-05-01T13:05:44.546Z,10.65
2019-05-01T13:08:14.908Z,7.78
2019-05-01T13:10:45.358Z,9.05
2019-05-01T13:13:15.706Z,9.38
2019-05-01T13:15:46.079Z,6.40
2019-05-01T13:18:16.490Z,7.97
2019-05-01T13:20:46.847Z,7.60
2019-05-01T13:23:17.287Z,6.67
2019-05-01T13:25:48.738Z,8.30
2019-05-01T13:28:30.217Z,6.10
2019-05-01T13:31:02.306Z,9.93
2019-05-01T13:33:32.819Z,6.53
2019-05-01T13:36:03.243Z,6.10
2019-05-01T13:38:33.662Z,8.68
2019-05-01T13:41:04.177Z,8.60
2019-05-01T13:43:34.687Z,7.00
2019-05-01T13:46:05.193Z,10.58
2019-05-01T13:48:35.653Z,9.03
2019-05-01T13:51:06.222Z,10.72
2019-05-01T13:53:36.766Z,7.72
2019-05-01T13:56:08.621Z,9.15
2019-05-01T13:58:39.129Z,7.35
2019-05-01T14:01:09.587Z,9.93
2019-05-01T14:03:40.002Z,10.00
2019-05-01T14:06:10.442Z,6.37
2019-05-01T14:08:40.822Z,14.70
2019-05-01T14:11:11.231Z,7.90
2019-05-01T14:13:41.586Z,8.63
2019-05-01T14:16:14.340Z,9.03
2019-05-01T14:18:44.099Z,9.15
2019-05-01T14:21:31.108Z,10.10
2019-05-01T14:24:09.030Z,8.10
2019-05-01T14:26:39.455Z,7.72
2019-05-01T14:29:10.835Z,7.27
2019-05-01T14:31:41.263Z,7.12
2019-05-01T14:34:11.623Z,7.83
2019-05-01T14:36:42.048Z,8.35
2019-05-01T14:39:12.417Z,6.00
2019-05-01T14:41:42.856Z,9.70
2019-05-01T14:44:13.226Z,8.68
2019-05-01T14:46:43.646Z,14.87
2019-05-01T14:49:14.016Z,7.65
2019-05-01T14:51:44.443Z,8.05
2019-05-01T14:54:14.805Z,10.03
2019-05-01T14:56:45.470Z,13.10
2019-05-01T14:59:15.828Z,8.60
2019-05-01T15:01:47.497Z,8.10
2019-05-01T15:04:17.839Z,9.13
2019-05-01T15:06:48.296Z,8.65
2019-05-01T15:09:18.677Z,6.78
2019-05-01T15:11:49.099Z,8.33
2019-05-01T15:14:23.948Z,10.60
2019-05-01T15:16:58.855Z,5.45
2019-05-01T15:19:33.531Z,9.23
2019-05-01T15:22:03.969Z,10.72
2019-05-01T15:24:34.331Z,7.28
2019-05-01T15:27:04.877Z,6.95
2019-05-01T15:29:35.300Z,6.33
2019-05-01T15:32:05.822Z,7.05
2019-05-01T15:34:36.230Z,5.42
2019-05-01T15:37:06.658Z,9.53
2019-05-01T15:39:41.674Z,7.60
2019-05-01T15:42:13.744Z,7.80
2019-05-01T15:44:47.611Z,6.60
2019-05-01T15:47:16.794Z,10.35
2019-05-01T15:49:47.238Z,6.25
2019-05-01T15:52:17.642Z,7.10
2019-05-01T15:54:48.075Z,6.95
2019-05-01T15:57:18.495Z,9.05
2019-05-01T15:59:50.211Z,6.53
2019-05-01T16:02:21.694Z,8.35
2019-05-01T16:04:52.221Z,11.50
2019-05-01T16:07:22.631Z,7.60
2019-05-01T16:09:53.155Z,9.63
2019-05-01T16:12:30.827Z,7.97
2019-05-01T16:15:01.247Z,5.53
2019-05-01T16:17:31.769Z,6.97
2019-05-01T16:20:02.176Z,11.70
2019-05-01T16:22:34.033Z,5.00
2019-05-01T16:25:06.886Z,8.00
2019-05-01T16:27:37.315Z,9.30
2019-05-01T16:30:08.361Z,5.65
2019-05-01T16:32:38.778Z,6.60
2019-05-01T16:35:09.755Z,7.67
2019-05-01T16:37:40.284Z,8.00
2019-05-01T16:40:21.639Z,6.92
2019-05-01T16:42:52.070Z,6.28
2019-05-01T16:45:22.527Z,7.35
2019-05-01T16:47:52.947Z,8.15
2019-05-01T16:50:23.407Z,6.08
2019-05-01T16:52:53.924Z,6.40
2019-05-01T16:55:24.401Z,6.35
2019-05-01T16:57:54.840Z,7.67
2019-05-01T17:00:45.598Z,4.27
2019-05-01T17:03:17.601Z,4.90
2019-05-01T17:05:52.548Z,4.28
2019-05-01T17:08:37.080Z,6.00
2019-05-01T17:11:10.293Z,8.38
2019-05-01T17:13:40.715Z,5.87
2019-05-01T17:16:11.276Z,8.43
2019-05-01T17:18:41.688Z,10.60
2019-05-01T17:21:12.110Z,6.62
2019-05-01T17:23:42.469Z,6.12
2019-05-01T17:26:14.015Z,7.47
2019-05-01T17:28:44.470Z,8.05
2019-05-01T17:31:15.085Z,7.65
2019-05-01T17:33:45.512Z,5.85
2019-05-01T17:36:15.871Z,7.40
2019-05-01T17:38:49.793Z,6.70
2019-05-01T17:41:18.354Z,6.65
2019-05-01T17:43:49.456Z,12.75
2019-05-01T17:46:20.811Z,10.38
2019-05-01T17:48:51.221Z,8.38
2019-05-01T17:51:21.578Z,8.30
2019-05-01T17:53:51.989Z,9.55
2019-05-01T17:56:27.953Z,11.75
2019-05-01T17:58:54.387Z,7.72
2019-05-01T18:01:32.550Z,9.70
2019-05-01T18:04:16.334Z,7.53
2019-05-01T18:06:48.314Z,8.60
2019-05-01T18:09:18.843Z,5.95
2019-05-01T18:11:52.336Z,7.05
2019-05-01T18:14:21.326Z,12.00
2019-05-01T18:16:51.689Z,10.08
2019-05-01T18:19:22.213Z,7.55
2019-05-01T18:21:56.910Z,11.85
2019-05-01T18:24:28.946Z,5.97
2019-05-01T18:27:03.866Z,11.15
2019-05-01T18:29:39.738Z,9.90
2019-05-01T18:32:10.160Z,9.95
2019-05-01T18:34:40.958Z,7.80
2019-05-01T18:37:18.914Z,11.20
2019-05-01T18:39:49.685Z,11.80
2019-05-01T18:42:20.087Z,12.45
2019-05-01T18:44:50.611Z,17.35
2019-05-01T18:47:20.992Z,38.15
2019-05-01T18:49:51.410Z,34.20
2019-05-01T18:52:21.779Z,26.87
2019-05-01T18:54:52.205Z,37.85
2019-05-01T18:57:22.571Z,36.95
2019-05-01T18:59:52.981Z,45.55
2019-05-01T19:02:25.094Z,29.40
2019-05-01T19:04:55.474Z,29.35
2019-05-01T19:07:25.950Z,28.90
2019-05-01T19:09:56.394Z,19.12
2019-05-01T19:12:26.851Z,31.45
2019-05-01T19:15:00.387Z,18.98
2019-05-01T19:17:29.376Z,19.87
2019-05-01T19:19:59.813Z,19.27
2019-05-01T19:22:30.178Z,22.13
2019-05-01T19:25:01.100Z,15.75
2019-05-01T19:27:31.915Z,16.52
2019-05-01T19:30:02.754Z,22.22
2019-05-01T19:32:34.259Z,23.70
2019-05-01T19:35:06.604Z,17.67
2019-05-01T19:37:37.414Z,25.52
2019-05-01T19:40:09.040Z,22.30
2019-05-01T19:42:40.290Z,22.82
2019-05-01T19:45:12.118Z,26.90
2019-05-01T19:47:43.022Z,26.63
2019-05-01T19:52:45.623Z,19.00
2019-05-01T19:55:16.516Z,14.78
2019-05-01T19:57:47.401Z,15.30
2019-05-01T20:00:36.429Z,17.67
2019-05-01T20:03:07.325Z,12.80
2019-05-01T20:05:38.191Z,16.25
2019-05-01T20:08:09.321Z,18.70
2019-05-01T20:10:40.398Z,15.88
2019-05-01T20:13:12.217Z,12.40
2019-05-01T20:15:43.660Z,15.78
2019-05-01T20:18:14.242Z,13.95
2019-05-01T20:20:45.571Z,12.05
2019-05-01T20:23:16.648Z,16.35
2019-05-01T20:25:50.912Z,17.67
2019-05-01T20:28:20.100Z,12.43
2019-05-01T20:30:51.423Z,14.23
2019-05-01T20:33:21.812Z,13.88
2019-05-01T20:35:52.379Z,21.73
2019-05-01T20:38:22.804Z,30.25
2019-05-01T20:40:53.255Z,14.75
2019-05-01T20:43:23.694Z,12.90
2019-05-01T20:45:54.124Z,15.43
2019-05-01T20:48:25.191Z,11.95
2019-05-01T20:50:57.175Z,21.30
2019-05-01T20:53:27.604Z,21.05
2019-05-01T20:56:08.889Z,17.25
2019-05-01T20:58:39.463Z,19.15
2019-05-01T21:01:09.896Z,13.13
2019-05-01T21:03:41.878Z,13.65
2019-05-01T21:06:19.638Z,20.50
2019-05-01T21:08:54.673Z,10.20
2019-05-01T21:11:26.630Z,16.35
2019-05-01T21:14:15.584Z,14.18
2019-05-01T21:16:32.831Z,14.00
2019-05-01T21:19:01.117Z,13.03
2019-05-01T21:21:34.367Z,19.00
2019-05-01T21:24:05.539Z,12.78
2019-05-01T21:26:35.894Z,13.00
2019-05-01T21:29:06.323Z,14.18
2019-05-01T21:31:36.762Z,15.55
2019-05-01T21:34:07.138Z,15.25
2019-05-01T21:36:37.580Z,12.80
2019-05-01T21:39:08.012Z,15.05
2019-05-01T21:41:38.419Z,13.18
2019-05-01T21:44:08.856Z,14.50
2019-05-01T21:46:39.283Z,12.60
2019-05-01T21:49:12.800Z,12.53
2019-05-01T21:51:46.025Z,12.45
2019-05-01T21:54:16.102Z,14.75
2019-05-01T21:56:47.002Z,15.13
2019-05-01T21:59:17.411Z,13.93
2019-05-01T22:01:48.029Z,14.65
2019-05-01T22:04:18.439Z,15.10
2019-05-01T22:06:51.876Z,17.23
2019-05-01T22:09:22.495Z,16.32
2019-05-01T22:11:52.979Z,17.75
2019-05-01T22:14:36.131Z,12.07
2019-05-01T22:19:37.094Z,21.00
2019-05-01T22:22:11.849Z,25.05
2019-05-01T22:24:45.607Z,19.32
2019-05-01T22:27:21.260Z,17.32
2019-05-01T22:30:12.741Z,17.50
2019-05-01T22:32:45.670Z,14.58
2019-05-01T22:35:26.594Z,14.63
2019-05-01T22:37:59.119Z,14.73
2019-05-01T22:40:49.827Z,14.58
2019-05-01T22:43:20.247Z,13.95
2019-05-01T22:45:56.453Z,19.98
2019-05-01T22:48:28.872Z,11.75
2019-05-01T22:51:01.578Z,18.70
2019-05-01T22:53:32.152Z,12.78
2019-05-01T22:56:04.135Z,15.18
2019-05-01T22:58:35.447Z,13.58
2019-05-01T23:01:07.685Z,13.13
2019-05-01T23:03:51.720Z,13.95
2019-05-01T23:06:22.482Z,15.32
2019-05-01T23:11:25.597Z,12.53
2019-05-01T23:13:55.980Z,15.48
2019-05-01T23:16:29.012Z,14.07
2019-05-01T23:19:00.009Z,12.07
2019-05-01T23:21:30.466Z,14.18
2019-05-01T23:24:01.838Z,12.90
2019-05-01T23:26:33.007Z,12.18
2019-05-01T23:29:04.629Z,16.07
2019-05-01T23:31:35.154Z,12.60
2019-05-01T23:34:05.807Z,12.65
2019-05-01T23:36:36.218Z,13.98
2019-05-01T23:39:07.756Z,16.00
2019-05-01T23:41:45.722Z,14.53
2019-05-01T23:44:10.235Z,15.90
2019-05-01T23:46:41.885Z,15.68
2019-05-01T23:49:12.296Z,13.58
2019-05-01T23:51:42.719Z,16.50
2019-05-01T23:54:13.172Z,19.90
2019-05-01T23:56:43.587Z,18.05
2019-05-01T23:59:14.026Z,16.48
